createdAt,value
2022-08-11T00:01:28.736Z,49.99
2022-08-11T00:04:02.563Z,49.97
2022-08-11T00:06:36.604Z,50.26
2022-08-11T00:09:08.112Z,50.25
2022-08-11T00:11:49.818Z,50.63
2022-08-11T00:14:37.558Z,50.73
2022-08-11T00:17:13.076Z,50.96
2022-08-11T00:20:13.697Z,50.94
2022-08-11T00:22:41.720Z,51.17
2022-08-11T00:25:19.179Z,51.22
2022-08-11T00:27:48.596Z,51.32
2022-08-11T00:30:16.635Z,51.44
2022-08-11T00:32:55.280Z,51.63
2022-08-11T00:35:56.229Z,51.67
2022-08-11T00:38:25.765Z,51.71
2022-08-11T00:41:31.575Z,51.70
2022-08-11T00:44:33.698Z,51.81
2022-08-11T00:47:27.356Z,51.92
2022-08-11T00:50:22.133Z,52.06
2022-08-11T00:53:26.791Z,52.26
2022-08-11T00:56:13.702Z,52.33
2022-08-11T00:59:34.643Z,52.29
2022-08-11T01:02:42.385Z,52.38
2022-08-11T01:05:37.894Z,52.45
2022-08-11T01:08:18.088Z,52.87
2022-08-11T01:11:09.734Z,52.73
2022-08-11T01:14:17.014Z,52.68
2022-08-11T01:17:52.829Z,52.77
2022-08-11T01:21:23.578Z,52.74
2022-08-11T01:24:27.850Z,53.12
2022-08-11T01:27:49.779Z,53.13
2022-08-11T01:31:01.588Z,53.33
2022-08-11T01:34:02.636Z,53.41
2022-08-11T01:36:53.392Z,53.44
2022-08-11T01:39:36.165Z,53.71
2022-08-11T01:42:56.743Z,53.53
2022-08-11T01:46:00.745Z,53.65
2022-08-11T01:48:56.884Z,53.92
2022-08-11T01:52:04.951Z,53.87
2022-08-11T01:54:41.998Z,54.15
2022-08-11T01:57:38.430Z,54.20
2022-08-11T02:00:18.296Z,54.36
2022-08-11T02:02:54.031Z,54.51
2022-08-11T02:05:29.991Z,54.65
2022-08-11T02:08:33.547Z,54.72
2022-08-11T02:11:31.509Z,54.90
2022-08-11T02:14:22.330Z,54.99
2022-08-11T02:17:13.551Z,55.17
2022-08-11T02:20:25.938Z,55.22
2022-08-11T02:24:04.178Z,55.43
2022-08-11T02:26:20.298Z,55.37
2022-08-11T02:29:15.696Z,55.67
2022-08-11T02:32:29.827Z,55.88
2022-08-11T02:35:42.890Z,55.91
2022-08-11T02:38:43.384Z,56.15
2022-08-11T02:41:43.595Z,56.10
2022-08-11T02:44:35.103Z,56.31
2022-08-11T02:47:38.272Z,56.18
2022-08-11T02:50:35.430Z,56.51
2022-08-11T02:53:16.715Z,56.54
2022-08-11T02:56:14.034Z,56.74
2022-08-11T02:59:20.719Z,57.08
2022-08-11T03:02:05.397Z,57.27
2022-08-11T03:05:00.140Z,57.46
2022-08-11T03:08:07.336Z,57.45
2022-08-11T03:11:14.526Z,57.70
2022-08-11T03:14:53.671Z,58.00
2022-08-11T03:17:41.298Z,58.00
2022-08-11T03:20:39.278Z,58.21
2022-08-11T03:23:49.756Z,58.26
2022-08-11T03:26:43.113Z,58.36
2022-08-11T03:29:35.542Z,58.44
2022-08-11T03:32:19.375Z,58.56
2022-08-11T03:34:50.590Z,58.66
2022-08-11T03:37:51.753Z,58.82
2022-08-11T03:40:47.506Z,59.12
2022-08-11T03:44:00.205Z,59.06
2022-08-11T03:47:01.272Z,59.13
2022-08-11T03:50:30.017Z,59.23
2022-08-11T03:53:53.274Z,59.15
2022-08-11T03:57:06.163Z,59.52
2022-08-11T04:00:27.241Z,59.67
2022-08-11T04:03:37.140Z,59.68
2022-08-11T04:06:30.128Z,60.00
2022-08-11T04:09:25.172Z,60.10
2022-08-11T04:12:36.469Z,60.21
2022-08-11T04:16:11.849Z,60.12
2022-08-11T04:19:17.776Z,60.35
2022-08-11T04:22:09.649Z,60.50
2022-08-11T04:24:58.396Z,60.66
2022-08-11T04:27:52.783Z,60.64
2022-08-11T04:31:02.492Z,60.34
2022-08-11T04:34:35.671Z,60.41
2022-08-11T04:37:40.275Z,60.42
2022-08-11T04:40:51.165Z,60.44
2022-08-11T04:44:05.586Z,60.51
2022-08-11T04:47:10.897Z,60.09
2022-08-11T04:50:39.647Z,60.20
2022-08-11T04:53:57.208Z,60.09
2022-08-11T04:57:10.404Z,60.13
2022-08-11T05:00:24.753Z,60.20
2022-08-11T05:03:12.818Z,60.25
2022-08-11T05:06:24.748Z,60.33
2022-08-11T05:09:48.040Z,60.21
2022-08-11T05:12:49.320Z,60.13
2022-08-11T05:16:07.991Z,60.14
2022-08-11T05:18:54.432Z,60.04
2022-08-11T05:21:44.814Z,59.79
2022-08-11T05:25:00.784Z,59.51
2022-08-11T05:28:03.819Z,59.22
2022-08-11T05:30:51.304Z,58.89
2022-08-11T05:33:52.853Z,58.31
2022-08-11T05:36:45.792Z,53.97
2022-08-11T05:39:46.632Z,46.98
2022-08-11T05:42:41.039Z,42.75
2022-08-11T05:45:57.302Z,38.79
2022-08-11T05:48:41.290Z,36.33
2022-08-11T05:51:30.391Z,35.24
2022-08-11T05:54:28.928Z,34.13
2022-08-11T05:57:00.652Z,34.73
2022-08-11T05:59:29.561Z,38.53
2022-08-11T06:02:07.312Z,42.46
2022-08-11T06:04:35.211Z,45.42
2022-08-11T06:07:09.453Z,47.10
2022-08-11T06:09:51.033Z,48.68
2022-08-11T06:12:32.430Z,49.55
2022-08-11T06:15:12.160Z,50.25
2022-08-11T06:17:48.663Z,51.14
2022-08-11T06:20:19.277Z,51.48
2022-08-11T06:22:57.375Z,51.58
2022-08-11T06:25:33.040Z,51.64
2022-08-11T06:28:03.529Z,51.63
2022-08-11T06:30:45.722Z,51.61
2022-08-11T06:33:19.372Z,51.33
2022-08-11T06:36:09.371Z,50.83
2022-08-11T06:39:23.869Z,50.54
2022-08-11T06:42:11.528Z,50.50
2022-08-11T06:45:01.096Z,49.84
2022-08-11T06:47:29.137Z,49.21
2022-08-11T06:50:18.676Z,49.22
2022-08-11T06:52:48.008Z,49.14
2022-08-11T06:55:55.550Z,48.99
2022-08-11T06:58:51.132Z,48.03
2022-08-11T07:01:46.575Z,47.71
2022-08-11T07:04:54.211Z,47.14
2022-08-11T07:08:34.240Z,46.44
2022-08-11T07:12:05.639Z,46.83
2022-08-11T07:14:53.340Z,45.11
2022-08-11T07:17:31.711Z,45.67
2022-08-11T07:20:22.065Z,44.80
2022-08-11T07:23:17.627Z,44.91
2022-08-11T07:26:10.835Z,44.03
2022-08-11T07:28:56.059Z,44.07
2022-08-11T07:31:42.272Z,43.78
2022-08-11T07:34:24.491Z,43.15
2022-08-11T07:37:02.228Z,43.56
2022-08-11T07:39:35.980Z,43.44
2022-08-11T07:42:11.470Z,43.87
2022-08-11T07:45:01.218Z,43.44
2022-08-11T07:47:48.696Z,42.46
2022-08-11T07:50:35.148Z,41.71
2022-08-11T07:53:04.094Z,41.11
2022-08-11T07:55:51.335Z,41.32
2022-08-11T07:58:45.550Z,41.58
2022-08-11T08:01:42.298Z,40.82
2022-08-11T08:04:32.464Z,40.75
2022-08-11T08:07:22.294Z,40.89
2022-08-11T08:10:09.901Z,39.82
2022-08-11T08:13:01.153Z,39.52
2022-08-11T08:15:48.534Z,39.45
2022-08-11T08:18:26.522Z,38.80
2022-08-11T08:21:12.119Z,38.28
2022-08-11T08:23:43.563Z,37.92
2022-08-11T08:26:34.553Z,37.85
2022-08-11T08:29:24.387Z,36.98
2022-08-11T08:31:53.828Z,36.61
2022-08-11T08:34:21.747Z,36.00
2022-08-11T08:36:52.303Z,35.96
2022-08-11T08:39:21.885Z,36.46
2022-08-11T08:41:58.855Z,36.14
2022-08-11T08:44:38.258Z,36.80
2022-08-11T08:47:14.572Z,36.02
2022-08-11T08:49:53.152Z,34.97
2022-08-11T08:52:31.003Z,35.56
2022-08-11T08:55:05.616Z,35.46
2022-08-11T08:57:39.114Z,35.38
2022-08-11T09:00:13.796Z,35.63
2022-08-11T09:02:45.783Z,35.22
2022-08-11T09:05:17.848Z,34.38
2022-08-11T09:07:47.684Z,33.78
2022-08-11T09:10:20.167Z,33.38
2022-08-11T09:12:48.946Z,32.69
2022-08-11T09:15:20.164Z,33.67
2022-08-11T09:17:53.282Z,33.10
2022-08-11T09:20:24.804Z,32.52
2022-08-11T09:26:30.742Z,30.79
2022-08-11T09:29:01.622Z,31.31
2022-08-11T09:31:39.633Z,32.40
2022-08-11T09:34:10.734Z,31.02
2022-08-11T09:36:59.995Z,30.76
2022-08-11T09:39:49.033Z,31.05
2022-08-11T09:42:23.129Z,31.10
2022-08-11T09:44:53.376Z,30.53
2022-08-11T09:47:27.964Z,30.28
2022-08-11T09:50:04.143Z,29.64
2022-08-11T09:52:38.431Z,29.23
2022-08-11T09:55:11.515Z,29.66
2022-08-11T09:57:59.875Z,29.30
2022-08-11T10:00:40.379Z,29.65
2022-08-11T10:03:19.174Z,28.10
2022-08-11T10:06:34.653Z,28.29
2022-08-11T10:09:06.600Z,27.40
2022-08-11T10:11:36.919Z,27.59
2022-08-11T10:14:33.407Z,27.73
2022-08-11T10:17:09.232Z,27.06
2022-08-11T10:19:38.572Z,27.19
2022-08-11T10:22:26.983Z,27.12
2022-08-11T10:25:19.569Z,26.40
2022-08-11T10:28:18.712Z,26.73
2022-08-11T10:31:06.892Z,25.18
2022-08-11T10:34:03.637Z,25.75
2022-08-11T10:36:48.143Z,25.53
2022-08-11T10:39:20.518Z,25.37
2022-08-11T10:42:12.225Z,25.30
2022-08-11T10:44:45.253Z,25.12
2022-08-11T10:47:34.236Z,25.48
2022-08-11T10:50:32.163Z,25.23
2022-08-11T10:53:20.066Z,24.77
2022-08-11T10:56:06.781Z,23.45
2022-08-11T10:58:47.233Z,24.15
2022-08-11T11:01:18.389Z,24.37
2022-08-11T11:03:46.972Z,23.99
2022-08-11T11:06:29.969Z,23.97
2022-08-11T11:09:32.826Z,24.08
2022-08-11T11:12:29.771Z,22.41
2022-08-11T11:15:21.158Z,21.60
2022-08-11T11:18:04.775Z,21.32
2022-08-11T11:20:47.765Z,22.21
2022-08-11T11:23:25.799Z,22.22
2022-08-11T11:26:27.947Z,21.91
2022-08-11T11:29:31.468Z,21.97
2022-08-11T11:32:21.464Z,21.86
2022-08-11T11:35:26.795Z,22.58
2022-08-11T11:38:04.903Z,22.94
2022-08-11T11:40:34.605Z,22.16
2022-08-11T11:43:02.498Z,21.95
2022-08-11T11:45:29.975Z,21.62
2022-08-11T11:48:00.415Z,21.81
2022-08-11T11:50:37.849Z,21.72
2022-08-11T11:53:09.964Z,21.11
2022-08-11T11:55:37.946Z,21.48
2022-08-11T11:58:25.604Z,21.76
2022-08-11T12:01:12.946Z,20.51
2022-08-11T12:03:41.600Z,20.68
2022-08-11T12:06:14.103Z,21.05
2022-08-11T12:08:43.640Z,21.41
2022-08-11T12:11:32.235Z,20.96
2022-08-11T12:14:10.729Z,19.92
2022-08-11T12:16:43.294Z,19.72
2022-08-11T12:19:16.653Z,19.40
2022-08-11T12:22:03.990Z,20.01
2022-08-11T12:24:53.432Z,19.85
2022-08-11T12:27:25.120Z,19.54
2022-08-11T12:30:09.250Z,20.49
2022-08-11T12:32:40.351Z,19.69
2022-08-11T12:35:09.100Z,19.77
2022-08-11T12:37:49.544Z,19.97
2022-08-11T12:41:11.899Z,19.68
2022-08-11T12:43:56.813Z,19.97
2022-08-11T12:46:34.086Z,20.14
2022-08-11T12:49:30.843Z,19.94
2022-08-11T12:52:12.758Z,20.48
2022-08-11T12:55:13.213Z,19.54
2022-08-11T12:58:06.143Z,19.65
2022-08-11T13:00:52.599Z,19.63
2022-08-11T13:03:40.217Z,19.14
2022-08-11T13:06:08.935Z,19.27
2022-08-11T13:08:40.189Z,19.63
2022-08-11T13:11:55.724Z,19.66
2022-08-11T13:14:17.033Z,20.24
2022-08-11T13:17:05.131Z,19.81
2022-08-11T13:19:34.505Z,19.54
2022-08-11T13:22:05.296Z,18.29
2022-08-11T13:24:36.129Z,19.31
2022-08-11T13:27:04.576Z,17.75
2022-08-11T13:29:31.989Z,17.81
2022-08-11T13:32:00.007Z,18.45
2022-08-11T13:34:32.684Z,17.69
2022-08-11T13:37:05.004Z,17.88
2022-08-11T13:39:35.991Z,17.91
2022-08-11T13:42:06.183Z,18.11
2022-08-11T13:44:38.457Z,18.52
2022-08-11T13:47:12.148Z,18.88
2022-08-11T13:49:41.784Z,18.44
2022-08-11T13:52:15.855Z,18.33
2022-08-11T13:54:47.994Z,19.03
2022-08-11T13:58:08.876Z,18.99
2022-08-11T14:00:13.385Z,18.10
2022-08-11T14:02:54.621Z,18.12
2022-08-11T14:05:39.868Z,18.14
2022-08-11T14:08:37.292Z,18.54
2022-08-11T14:12:21.658Z,18.42
2022-08-11T14:14:23.029Z,18.53
2022-08-11T14:16:54.114Z,18.62
2022-08-11T14:19:27.063Z,17.94
2022-08-11T14:22:08.534Z,18.62
2022-08-11T14:24:52.375Z,18.05
2022-08-11T14:28:25.954Z,18.17
2022-08-11T14:30:33.981Z,18.28
2022-08-11T14:33:01.866Z,18.25
2022-08-11T14:35:44.605Z,18.12
2022-08-11T14:38:19.691Z,18.24
2022-08-11T14:41:15.311Z,18.40
2022-08-11T14:44:13.051Z,18.16
2022-08-11T14:47:02.819Z,18.52
2022-08-11T14:49:31.220Z,18.40
2022-08-11T14:51:59.366Z,17.77
2022-08-11T14:54:50.093Z,18.38
2022-08-11T14:57:20.081Z,18.58
2022-08-11T15:00:15.400Z,18.92
2022-08-11T15:03:02.244Z,18.78
2022-08-11T15:05:29.855Z,17.99
2022-08-11T15:07:59.272Z,17.86
2022-08-11T15:10:27.542Z,17.93
2022-08-11T15:12:55.511Z,18.06
2022-08-11T15:15:43.715Z,18.34
2022-08-11T15:18:17.563Z,18.24
2022-08-11T15:21:03.770Z,17.92
2022-08-11T15:23:50.172Z,18.07
2022-08-11T15:26:55.759Z,18.19
2022-08-11T15:29:47.776Z,17.60
2022-08-11T15:32:38.193Z,17.84
2022-08-11T15:35:25.633Z,18.16
2022-08-11T15:38:04.379Z,18.07
2022-08-11T15:40:58.435Z,18.42
2022-08-11T15:43:55.055Z,18.37
2022-08-11T15:46:44.545Z,18.02
2022-08-11T15:49:21.983Z,18.34
2022-08-11T15:52:03.957Z,18.28
2022-08-11T15:54:35.188Z,17.99
2022-08-11T15:57:05.720Z,18.14
2022-08-11T15:59:55.523Z,18.15
2022-08-11T16:02:45.586Z,18.22
2022-08-11T16:05:45.742Z,18.31
2022-08-11T16:08:05.411Z,17.91
2022-08-11T16:10:35.378Z,17.83
2022-08-11T16:13:06.265Z,17.44
2022-08-11T16:15:58.057Z,17.41
2022-08-11T16:18:42.966Z,17.10
2022-08-11T16:21:33.799Z,16.77
2022-08-11T16:27:03.157Z,17.19
2022-08-11T16:27:12.926Z,17.12
2022-08-11T16:29:47.766Z,17.03
2022-08-11T16:32:23.557Z,16.95
2022-08-11T16:35:22.880Z,17.04
2022-08-11T16:38:12.467Z,17.72
2022-08-11T16:40:42.521Z,16.91
2022-08-11T16:43:35.638Z,17.12
2022-08-11T16:46:25.598Z,17.16
2022-08-11T16:48:54.991Z,17.34
2022-08-11T16:51:23.316Z,17.35
2022-08-11T16:54:03.879Z,17.36
2022-08-11T16:56:49.127Z,17.20
2022-08-11T16:59:39.229Z,17.07
2022-08-11T17:02:36.654Z,16.96
2022-08-11T17:05:29.957Z,17.49
2022-08-11T17:08:19.172Z,17.19
2022-08-11T17:11:20.777Z,16.92
2022-08-11T17:13:57.042Z,16.79
2022-08-11T17:16:34.328Z,16.45
2022-08-11T17:19:08.691Z,16.84
2022-08-11T17:22:11.745Z,16.80
2022-08-11T17:24:44.685Z,16.93
2022-08-11T17:27:16.875Z,16.71
2022-08-11T17:29:56.404Z,17.03
2022-08-11T17:32:55.737Z,17.50
2022-08-11T17:35:30.421Z,16.94
2022-08-11T17:38:15.803Z,16.77
2022-08-11T17:41:10.803Z,16.80
2022-08-11T17:44:07.408Z,16.97
2022-08-11T17:46:56.427Z,17.36
2022-08-11T17:49:26.325Z,17.35
2022-08-11T17:52:13.655Z,17.28
2022-08-11T17:55:01.197Z,17.60
2022-08-11T17:57:52.070Z,17.74
2022-08-11T18:00:19.412Z,17.98
2022-08-11T18:03:07.892Z,18.50
2022-08-11T18:05:40.791Z,18.41
2022-08-11T18:08:29.519Z,18.53
2022-08-11T18:12:06.410Z,18.95
2022-08-11T18:14:29.013Z,19.08
2022-08-11T18:17:15.733Z,19.45
2022-08-11T18:20:01.678Z,19.44
2022-08-11T18:22:57.138Z,19.85
2022-08-11T18:25:49.138Z,19.86
2022-08-11T18:28:44.923Z,20.28
2022-08-11T18:31:35.300Z,20.08
2022-08-11T18:34:25.581Z,20.61
2022-08-11T18:37:23.884Z,21.00
2022-08-11T18:40:21.151Z,21.22
2022-08-11T18:43:11.557Z,21.81
2022-08-11T18:46:06.271Z,22.31
2022-08-11T18:48:58.984Z,22.88
2022-08-11T18:51:46.980Z,23.20
2022-08-11T18:54:37.066Z,23.54
2022-08-11T18:57:26.201Z,24.00
2022-08-11T19:00:14.062Z,24.40
2022-08-11T19:03:03.889Z,24.79
2022-08-11T19:06:37.091Z,25.12
2022-08-11T19:09:07.104Z,25.65
2022-08-11T19:11:54.931Z,26.57
2022-08-11T19:14:49.265Z,27.09
2022-08-11T19:17:45.872Z,27.29
2022-08-11T19:20:37.797Z,27.29
2022-08-11T19:23:27.607Z,28.63
2022-08-11T19:26:16.817Z,28.84
2022-08-11T19:29:07.658Z,29.32
2022-08-11T19:31:56.035Z,29.48
2022-08-11T19:34:44.438Z,30.05
2022-08-11T19:37:31.617Z,29.83
2022-08-11T19:40:25.527Z,30.06
2022-08-11T19:43:20.613Z,30.61
2022-08-11T19:46:18.628Z,30.83
2022-08-11T19:49:10.826Z,30.72
2022-08-11T19:51:58.347Z,31.31
2022-08-11T19:54:52.148Z,31.47
2022-08-11T19:57:42.698Z,31.90
2022-08-11T20:00:36.051Z,32.30
2022-08-11T20:03:27.163Z,31.92
2022-08-11T20:06:17.712Z,32.25
2022-08-11T20:09:06.781Z,32.90
2022-08-11T20:11:59.727Z,33.04
2022-08-11T20:14:52.364Z,33.28
2022-08-11T20:17:44.292Z,32.99
2022-08-11T20:20:33.759Z,33.48
2022-08-11T20:23:24.440Z,33.48
2022-08-11T20:26:31.349Z,33.34
2022-08-11T20:29:19.561Z,33.67
2022-08-11T20:32:09.480Z,33.67
2022-08-11T20:34:58.537Z,33.51
2022-08-11T20:37:51.016Z,33.53
2022-08-11T20:40:42.897Z,33.73
2022-08-11T20:44:07.966Z,33.51
2022-08-11T20:46:41.505Z,33.62
2022-08-11T20:49:33.351Z,33.79
2022-08-11T20:52:31.485Z,33.80
2022-08-11T20:55:21.004Z,33.56
2022-08-11T20:58:15.251Z,33.92
2022-08-11T21:01:08.187Z,33.88
2022-08-11T21:04:05.973Z,34.16
2022-08-11T21:06:53.925Z,34.02
2022-08-11T21:09:58.323Z,34.45
2022-08-11T21:12:50.784Z,34.20
2022-08-11T21:16:03.203Z,34.62
2022-08-11T21:18:51.599Z,34.67
2022-08-11T21:21:45.599Z,34.71
2022-08-11T21:24:35.551Z,35.20
2022-08-11T21:27:26.912Z,35.23
2022-08-11T21:30:16.709Z,35.12
2022-08-11T21:33:04.232Z,35.59
2022-08-11T21:35:51.713Z,35.38
2022-08-11T21:38:37.521Z,35.56
2022-08-11T21:41:25.236Z,35.84
2022-08-11T21:44:14.721Z,36.13
2022-08-11T21:47:01.117Z,36.29
2022-08-11T21:49:51.045Z,36.35
2022-08-11T21:52:37.192Z,36.31
2022-08-11T21:55:23.679Z,36.78
2022-08-11T21:58:12.517Z,36.89
2022-08-11T22:00:58.622Z,36.74
2022-08-11T22:03:50.103Z,36.71
2022-08-11T22:06:38.321Z,37.01
2022-08-11T22:09:24.369Z,37.27
2022-08-11T22:12:30.107Z,37.42
2022-08-11T22:15:18.073Z,37.88
2022-08-11T22:18:03.489Z,37.79
2022-08-11T22:20:50.945Z,37.72
2022-08-11T22:23:38.286Z,37.99
2022-08-11T22:26:26.182Z,38.20
2022-08-11T22:29:12.111Z,38.28
2022-08-11T22:31:59.388Z,38.44
2022-08-11T22:34:53.132Z,38.20
2022-08-11T22:37:41.473Z,38.22
2022-08-11T22:40:29.340Z,38.47
2022-08-11T22:43:14.922Z,38.99
2022-08-11T22:46:00.773Z,38.66
2022-08-11T22:48:50.139Z,38.72
2022-08-11T22:51:38.584Z,38.93
2022-08-11T22:54:25.373Z,38.80
2022-08-11T22:57:12.172Z,39.02
2022-08-11T22:59:59.517Z,38.94
2022-08-11T23:02:47.944Z,38.75
2022-08-11T23:05:34.597Z,38.73
2022-08-11T23:08:21.529Z,39.02
2022-08-11T23:11:09.112Z,38.96
2022-08-11T23:13:54.930Z,38.84
2022-08-11T23:16:42.239Z,39.04
2022-08-11T23:20:10.854Z,39.15
2022-08-11T23:22:39.501Z,39.47
2022-08-11T23:25:36.253Z,39.94
2022-08-11T23:28:25.077Z,40.44
2022-08-11T23:31:15.379Z,40.29
2022-08-11T23:34:05.676Z,40.19
2022-08-11T23:36:51.601Z,40.04
2022-08-11T23:39:37.535Z,40.11
2022-08-11T23:42:24.193Z,40.15
2022-08-11T23:45:10.373Z,40.48
2022-08-11T23:47:59.127Z,40.39
2022-08-11T23:50:45.468Z,40.41
2022-08-11T23:53:37.013Z,40.62
2022-08-11T23:56:23.581Z,40.76
2022-08-11T23:59:14.744Z,40.93
